1895 Hurricane NOT_NAMED (1895255N30306)


IBTrACS version v04r00. Visit IBTrACS website for data access.
Please direct all questions to the IBTrACS Q and A forum

Storm track - Intensity - Wind Radii - Intensity Data - Source Data - All data

Summary Information

Storm ID 1895255N30306
Start Sep 11 12Z
Max Intensity 75 kt (Sep 13 18Z)
End Sep 18 18Z
ATCF IDs
Track status Best track data.

Storm track plot

Map of storm track

Intensity plots

Map of storm track

Radial wind information

No radial wind information for this storm


Position and Intensity Table

BASIN ISO_TIME_________ NATURE LAT LON MLC WIND
degrees north degrees east kts
NA 1895-09-11 12:00:00 TS 29.50 -54.00 30
NA 15:00:00 TS 28.92 -54.11 32
NA 18:00:00 TS 28.30 -54.20 35
NA 21:00:00 TS 27.65 -54.26 37
NA 1895-09-12 00:00:00 TS 27.20 -54.30 40
NA 03:00:00 TS 27.21 -54.35 42
NA 06:00:00 TS 27.40 -54.40 45
NA 09:00:00 TS 27.46 -54.43 47
NA 12:00:00 TS 27.50 -54.50 50
NA 15:00:00 TS 27.55 -54.68 52
NA 18:00:00 TS 27.60 -54.90 55
NA 21:00:00 TS 27.64 -55.10 57
NA 1895-09-13 00:00:00 TS 27.70 -55.30 60
NA 03:00:00 TS 27.80 -55.51 62
NA 06:00:00 TS 27.90 -55.70 65
NA 09:00:00 TS 27.94 -55.84 67
NA 12:00:00 TS 28.00 -56.00 70
NA 15:00:00 TS 28.14 -56.23 72
NA 18:00:00 TS 28.30 -56.50 75
NA 21:00:00 TS 28.40 -56.75 75
NA 1895-09-14 00:00:00 TS 28.50 -57.00 75
NA 03:00:00 TS 28.65 -57.25 75
NA 06:00:00 TS 28.80 -57.50 75
NA 09:00:00 TS 28.88 -57.71 75
NA 12:00:00 TS 29.00 -58.00 75
NA 15:00:00 TS 29.23 -58.50 72
NA 18:00:00 TS 29.50 -59.10 70
NA 21:00:00 TS 29.75 -59.68 70
NA 1895-09-15 00:00:00 TS 30.00 -60.20 70
NA 03:00:00 TS 30.25 -60.59 67
NA 06:00:00 TS 30.50 -60.90 65
NA 09:00:00 TS 30.75 -61.30 62
NA 12:00:00 TS 31.00 -61.50 60
NA 15:00:00 TS 31.25 -61.29 60
NA 18:00:00 TS 31.50 -60.90 60
NA 21:00:00 TS 31.75 -60.60 57
NA 1895-09-16 00:00:00 TS 32.00 -60.30 55
NA 03:00:00 TS 32.25 -60.01 52
NA 06:00:00 TS 32.50 -59.70 50
NA 09:00:00 TS 32.74 -59.28 47
NA 12:00:00 TS 33.00 -59.00 45
NA 15:00:00 TS 33.34 -59.08 45
NA 18:00:00 TS 33.70 -59.30 45
NA 21:00:00 TS 34.01 -59.40 45
NA 1895-09-17 00:00:00 TS 34.30 -59.50 45
NA 03:00:00 TS 34.60 -59.65 45
NA 06:00:00 TS 34.90 -59.80 45
NA 09:00:00 TS 35.18 -60.00 45
NA 12:00:00 TS 35.50 -60.00 45
NA 15:00:00 TS 35.93 -59.63 45
NA 18:00:00 TS 36.40 -59.00 45
NA 21:00:00 TS 36.81 -58.45 42
NA 1895-09-18 00:00:00 TS 37.30 -57.50 40
NA 03:00:00 TS 37.97 -55.83 37
NA 06:00:00 ET 38.70 -53.80 35
NA 09:00:00 ET 39.86 -50.96 32
NA 12:00:00 ET 40.00 -50.00 30
NA 15:00:00 ET 37.97 -53.18 32
NA 18:00:00 ET 34.40 -58.50 35

Source Information

Agency Information
USA
TOKYO
CMA
HKO
NEWDELHI
REUNION
BOM
NADI
WELLINGTON
DS824
TD9636
TD9635
NEUMANN
MLC

All available IBTrACS Data

SEASON BASIN SUBBASIN ISO_TIME_________ NATURE LAT LON DIST2LAND LANDFALL IFLAG USA SSHS MLC LAT MLC LON MLC CLASS MLC WIND STORM SPEED STORM DIR
Year degrees north degrees east km km 1 degrees north degrees east kts kts degrees
1895 NA NA 1895-09-11 12:00:00 TS 29.50 -54.00 1708 1663 _____________O -1 29.50 -54.00 TD 30 12 189
1895 NA NA 15:00:00 TS 28.92 -54.11 1655 1603 _____________P -1 28.92 -54.11 TD 32 12 188
1895 NA NA 18:00:00 TS 28.30 -54.20 1603 1552 _____________O -1 28.30 -54.20 TS 35 13 186
1895 NA NA 21:00:00 TS 27.65 -54.26 1545 1517 _____________P -1 27.65 -54.26 TS 37 11 185
1895 NA NA 1895-09-12 00:00:00 TS 27.20 -54.30 1517 1517 _____________O -1 27.20 -54.30 TS 40 4 190
1895 NA NA 03:00:00 TS 27.21 -54.35 1517 1509 _____________P -1 27.21 -54.35 TS 42 2 335
1895 NA NA 06:00:00 TS 27.40 -54.40 1523 1523 _____________O -1 27.40 -54.40 TS 45 3 345
1895 NA NA 09:00:00 TS 27.46 -54.43 1530 1523 _____________P -1 27.46 -54.43 TS 47 1 320
1895 NA NA 12:00:00 TS 27.50 -54.50 1523 1508 _____________O -1 27.50 -54.50 TS 50 2 293
1895 NA NA 15:00:00 TS 27.55 -54.68 1515 1500 _____________P -1 27.55 -54.68 TS 52 4 286
1895 NA NA 18:00:00 TS 27.60 -54.90 1500 1485 _____________O -1 27.60 -54.90 TS 55 4 284
1895 NA NA 21:00:00 TS 27.64 -55.10 1485 1478 _____________P -1 27.64 -55.10 TS 57 4 286
1895 NA NA 1895-09-13 00:00:00 TS 27.70 -55.30 1478 1471 _____________O -1 27.70 -55.30 TS 60 4 294
1895 NA NA 03:00:00 TS 27.80 -55.51 1471 1464 _____________P -1 27.80 -55.51 TS 62 4 299
1895 NA NA 06:00:00 TS 27.90 -55.70 1465 1458 _____________O -1 27.90 -55.70 HU 65 3 296
1895 NA NA 09:00:00 TS 27.94 -55.84 1458 1451 _____________P -1 27.94 -55.84 HU 67 3 291
1895 NA NA 12:00:00 TS 28.00 -56.00 1452 1445 _____________O -1 28.00 -56.00 HU 70 4 300
1895 NA NA 15:00:00 TS 28.14 -56.23 1446 1441 _____________P -1 28.14 -56.23 HU 72 5 304
1895 NA NA 18:00:00 TS 28.30 -56.50 1443 1436 _____________O -1 28.30 -56.50 HU 75 5 300
1895 NA NA 21:00:00 TS 28.40 -56.75 1432 1425 _____________P -1 28.40 -56.75 HU 75 5 294
1895 NA NA 1895-09-14 00:00:00 TS 28.50 -57.00 1428 1421 _____________O -1 28.50 -57.00 HU 75 5 300
1895 NA NA 03:00:00 TS 28.65 -57.25 1424 1421 _____________P -1 28.65 -57.25 HU 75 5 304
1895 NA NA 06:00:00 TS 28.80 -57.50 1424 1418 _____________O -1 28.80 -57.50 HU 75 5 300
1895 NA NA 09:00:00 TS 28.88 -57.71 1421 1410 _____________P -1 28.88 -57.71 HU 75 5 295
1895 NA NA 12:00:00 TS 29.00 -58.00 1413 1405 _____________O -1 29.00 -58.00 HU 75 8 296
1895 NA NA 15:00:00 TS 29.23 -58.50 1405 1399 _____________P -1 29.23 -58.50 HU 72 11 298
1895 NA NA 18:00:00 TS 29.50 -59.10 1404 1399 _____________O -1 29.50 -59.10 HU 70 11 297
1895 NA NA 21:00:00 TS 29.75 -59.68 1406 1398 _____________P -1 29.75 -59.68 HU 70 11 298
1895 NA NA 1895-09-15 00:00:00 TS 30.00 -60.20 1406 1402 _____________O -1 30.00 -60.20 HU 70 9 302
1895 NA NA 03:00:00 TS 30.25 -60.59 1411 1411 _____________P -1 30.25 -60.59 HU 67 8 310
1895 NA NA 06:00:00 TS 30.50 -60.90 1432 1429 _____________O -1 30.50 -60.90 HU 65 8 309
1895 NA NA 09:00:00 TS 30.75 -61.30 1428 1401 _____________P -1 30.75 -61.30 HU 62 7 314
1895 NA NA 12:00:00 TS 31.00 -61.50 1401 1396 _____________O -1 31.00 -61.50 TS 60 5 2
1895 NA NA 15:00:00 TS 31.25 -61.29 1392 1388 _____________P -1 31.25 -61.29 TS 60 7 46
1895 NA NA 18:00:00 TS 31.50 -60.90 1390 1374 _____________O -1 31.50 -60.90 TS 60 8 50
1895 NA NA 21:00:00 TS 31.75 -60.60 1376 1352 _____________P -1 31.75 -60.60 TS 57 7 46
1895 NA NA 1895-09-16 00:00:00 TS 32.00 -60.30 1352 1337 _____________O -1 32.00 -60.30 TS 55 7 45
1895 NA NA 03:00:00 TS 32.25 -60.01 1340 1315 _____________P -1 32.25 -60.01 TS 52 7 45
1895 NA NA 06:00:00 TS 32.50 -59.70 1318 1307 _____________O -1 32.50 -59.70 TS 50 8 52
1895 NA NA 09:00:00 TS 32.74 -59.28 1310 1290 _____________P -1 32.74 -59.28 TS 47 8 50
1895 NA NA 12:00:00 TS 33.00 -59.00 1290 1256 _____________O -1 33.00 -59.00 TS 45 6 16
1895 NA NA 15:00:00 TS 33.34 -59.08 1256 1207 _____________P -1 33.34 -59.08 TS 45 7 340
1895 NA NA 18:00:00 TS 33.70 -59.30 1207 1173 _____________O -1 33.70 -59.30 TS 45 7 338
1895 NA NA 21:00:00 TS 34.01 -59.40 1173 1139 _____________P -1 34.01 -59.40 TS 45 6 344
1895 NA NA 1895-09-17 00:00:00 TS 34.30 -59.50 1139 1104 _____________O -1 34.30 -59.50 TS 45 6 341
1895 NA NA 03:00:00 TS 34.60 -59.65 1104 1066 _____________P -1 34.60 -59.65 TS 45 7 338
1895 NA NA 06:00:00 TS 34.90 -59.80 1066 1029 _____________O -1 34.90 -59.80 TS 45 6 334
1895 NA NA 09:00:00 TS 35.18 -60.00 1029 998 _____________P -1 35.18 -60.00 TS 45 6 345
1895 NA NA 12:00:00 TS 35.50 -60.00 998 970 _____________O -1 35.50 -60.00 TS 45 8 22
1895 NA NA 15:00:00 TS 35.93 -59.63 975 953 _____________P -1 35.93 -59.63 TS 45 12 42
1895 NA NA 18:00:00 TS 36.40 -59.00 953 940 _____________O -1 36.40 -59.00 TS 45 13 47
1895 NA NA 21:00:00 TS 36.81 -58.45 946 925 _____________P -1 36.81 -58.45 TS 42 15 53
1895 NA NA 1895-09-18 00:00:00 TS 37.30 -57.50 928 911 _____________O -1 37.30 -57.50 TS 40 24 61
1895 NA NA 03:00:00 TS 37.97 -55.83 912 889 _____________P -1 37.97 -55.83 TS 37 32 64
1895 NA NA 06:00:00 ET 38.70 -53.80 878 773 _____________O -1 38.70 -53.80 EX 35 42 64
1895 NA NA 09:00:00 ET 39.86 -50.96 765 756 _____________P -1 39.86 -50.96 EX 32 32 66
1895 NA NA 12:00:00 ET 40.00 -50.00 777 777 _____________O -1 40.00 -50.00 EX 30 26 222
1895 NA NA 15:00:00 ET 37.97 -53.18 956 956 _____________P -1 37.97 -53.18 EX 32 88 230
1895 NA NA 18:00:00 ET 34.40 -58.50 1169 _____________O -1 34.40 -58.50 EX 35 112 231